sensor_id;sensor_type;location;lat;lon;timestamp;pressure;altitude;pressure_sealevel;temperature;humidity
54038;BME280;39954;48.844;9.726;2023-06-05T00:00:22;96167.44;;;11.96;73.63
54038;BME280;39954;48.844;9.726;2023-06-05T00:01:27;96161.50;;;11.94;73.71
54038;BME280;39954;48.844;9.726;2023-06-05T00:02:29;96157.41;;;11.90;74.63
54038;BME280;39954;48.844;9.726;2023-06-05T00:03:34;96162.72;;;11.88;75.37
54038;BME280;39954;48.844;9.726;2023-06-05T00:04:41;96159.00;;;11.92;73.42
54038;BME280;39954;48.844;9.726;2023-06-05T00:05:46;96160.00;;;11.90;73.80
54038;BME280;39954;48.844;9.726;2023-06-05T00:06:49;96159.53;;;11.83;74.18
54038;BME280;39954;48.844;9.726;2023-06-05T00:07:54;96164.16;;;11.78;75.78
54038;BME280;39954;48.844;9.726;2023-06-05T00:08:56;96168.72;;;11.74;76.51
54038;BME280;39954;48.844;9.726;2023-06-05T00:10:01;96159.06;;;11.76;75.50
54038;BME280;39954;48.844;9.726;2023-06-05T00:11:03;96157.28;;;11.77;75.01
54038;BME280;39954;48.844;9.726;2023-06-05T00:12:08;96162.00;;;11.70;74.77
54038;BME280;39954;48.844;9.726;2023-06-05T00:13:11;96165.63;;;11.68;75.62
54038;BME280;39954;48.844;9.726;2023-06-05T00:14:16;96165.81;;;11.64;76.22
54038;BME280;39954;48.844;9.726;2023-06-05T00:15:19;96163.50;;;11.60;77.82
54038;BME280;39954;48.844;9.726;2023-06-05T00:16:26;96161.94;;;11.57;77.92
54038;BME280;39954;48.844;9.726;2023-06-05T00:17:28;96157.81;;;11.53;78.34
54038;BME280;39954;48.844;9.726;2023-06-05T00:18:34;96161.53;;;11.49;77.99
54038;BME280;39954;48.844;9.726;2023-06-05T00:19:36;96162.56;;;11.47;77.81
54038;BME280;39954;48.844;9.726;2023-06-05T00:20:41;96164.41;;;11.45;77.93
54038;BME280;39954;48.844;9.726;2023-06-05T00:21:43;96164.59;;;11.41;77.83
54038;BME280;39954;48.844;9.726;2023-06-05T00:22:48;96164.19;;;11.33;79.95
54038;BME280;39954;48.844;9.726;2023-06-05T00:23:50;96156.78;;;11.41;78.87
54038;BME280;39954;48.844;9.726;2023-06-05T00:24:55;96161.91;;;11.43;78.10
54038;BME280;39954;48.844;9.726;2023-06-05T00:25:57;96168.78;;;11.44;78.52
54038;BME280;39954;48.844;9.726;2023-06-05T00:27:02;96160.41;;;11.39;79.03
54038;BME280;39954;48.844;9.726;2023-06-05T00:28:05;96166.81;;;11.33;79.87
54038;BME280;39954;48.844;9.726;2023-06-05T00:29:10;96166.81;;;11.33;79.80
54038;BME280;39954;48.844;9.726;2023-06-05T00:30:13;96166.16;;;11.30;79.27
54038;BME280;39954;48.844;9.726;2023-06-05T00:31:18;96167.56;;;11.35;79.59
54038;BME280;39954;48.844;9.726;2023-06-05T00:32:30;96168.56;;;11.33;79.60
54038;BME280;39954;48.844;9.726;2023-06-05T00:33:34;96168.81;;;11.28;80.37
54038;BME280;39954;48.844;9.726;2023-06-05T00:34:37;96162.16;;;11.24;81.84
54038;BME280;39954;48.844;9.726;2023-06-05T00:35:42;96169.28;;;11.20;81.83
54038;BME280;39954;48.844;9.726;2023-06-05T00:36:44;96173.91;;;11.15;82.25
54038;BME280;39954;48.844;9.726;2023-06-05T00:37:52;96169.72;;;11.13;81.48
54038;BME280;39954;48.844;9.726;2023-06-05T00:38:54;96169.56;;;11.16;81.24
54038;BME280;39954;48.844;9.726;2023-06-05T00:39:59;96161.28;;;11.09;81.84
54038;BME280;39954;48.844;9.726;2023-06-05T00:41:01;96169.16;;;11.08;82.19
54038;BME280;39954;48.844;9.726;2023-06-05T00:42:07;96158.16;;;11.03;83.32
54038;BME280;39954;48.844;9.726;2023-06-05T00:43:09;96168.41;;;11.06;83.08
54038;BME280;39954;48.844;9.726;2023-06-05T00:44:14;96163.38;;;11.03;82.59
54038;BME280;39954;48.844;9.726;2023-06-05T00:45:18;96164.19;;;11.03;82.91
54038;BME280;39954;48.844;9.726;2023-06-05T00:46:23;96165.97;;;11.03;82.69
54038;BME280;39954;48.844;9.726;2023-06-05T00:47:28;96164.31;;;11.02;83.60
54038;BME280;39954;48.844;9.726;2023-06-05T00:48:34;96161.78;;;11.00;83.64
54038;BME280;39954;48.844;9.726;2023-06-05T00:49:37;96163.81;;;10.95;83.76
54038;BME280;39954;48.844;9.726;2023-06-05T00:50:42;96165.41;;;10.97;84.54
54038;BME280;39954;48.844;9.726;2023-06-05T00:51:45;96161.19;;;10.95;85.29
54038;BME280;39954;48.844;9.726;2023-06-05T00:52:51;96161.72;;;11.02;85.58
54038;BME280;39954;48.844;9.726;2023-06-05T00:53:54;96160.94;;;11.00;84.13
54038;BME280;39954;48.844;9.726;2023-06-05T00:54:59;96160.28;;;10.96;84.37
54038;BME280;39954;48.844;9.726;2023-06-05T00:56:03;96165.75;;;10.91;85.67
54038;BME280;39954;48.844;9.726;2023-06-05T00:57:09;96161.66;;;10.87;87.43
54038;BME280;39954;48.844;9.726;2023-06-05T00:58:13;96161.75;;;10.86;89.18
54038;BME280;39954;48.844;9.726;2023-06-05T00:59:20;96160.25;;;10.82;89.42
54038;BME280;39954;48.844;9.726;2023-06-05T01:00:22;96158.72;;;10.78;90.65
54038;BME280;39954;48.844;9.726;2023-06-05T01:01:28;96159.19;;;10.70;91.61
54038;BME280;39954;48.844;9.726;2023-06-05T01:02:34;96165.47;;;10.66;92.87
54038;BME280;39954;48.844;9.726;2023-06-05T01:03:40;96167.47;;;10.61;93.98
54038;BME280;39954;48.844;9.726;2023-06-05T01:04:42;96160.59;;;10.60;94.26
54038;BME280;39954;48.844;9.726;2023-06-05T01:05:48;96159.78;;;10.59;94.58
54038;BME280;39954;48.844;9.726;2023-06-05T01:06:51;96155.75;;;10.53;95.29
54038;BME280;39954;48.844;9.726;2023-06-05T01:07:56;96165.88;;;10.58;95.46
54038;BME280;39954;48.844;9.726;2023-06-05T01:08:58;96160.59;;;10.60;95.58
54038;BME280;39954;48.844;9.726;2023-06-05T01:10:06;96157.06;;;10.61;96.78
54038;BME280;39954;48.844;9.726;2023-06-05T01:11:16;96156.06;;;10.63;97.40
54038;BME280;39954;48.844;9.726;2023-06-05T01:12:26;96163.22;;;10.60;97.17
54038;BME280;39954;48.844;9.726;2023-06-05T01:13:32;96157.25;;;10.58;96.94
54038;BME280;39954;48.844;9.726;2023-06-05T01:14:41;96164.38;;;10.54;98.13
54038;BME280;39954;48.844;9.726;2023-06-05T01:15:48;96154.06;;;10.52;98.87
54038;BME280;39954;48.844;9.726;2023-06-05T01:16:56;96159.94;;;10.56;99.07
54038;BME280;39954;48.844;9.726;2023-06-05T01:18:05;96157.59;;;10.51;99.64
54038;BME280;39954;48.844;9.726;2023-06-05T01:19:13;96156.09;;;10.47;99.88
54038;BME280;39954;48.844;9.726;2023-06-05T01:20:16;96152.81;;;10.44;100.00
54038;BME280;39954;48.844;9.726;2023-06-05T01:21:22;96156.41;;;10.41;100.00
54038;BME280;39954;48.844;9.726;2023-06-05T01:22:25;96153.09;;;10.39;100.00
54038;BME280;39954;48.844;9.726;2023-06-05T01:23:33;96152.16;;;10.40;99.60
54038;BME280;39954;48.844;9.726;2023-06-05T01:24:37;96152.56;;;10.48;99.62
54038;BME280;39954;48.844;9.726;2023-06-05T01:25:42;96149.03;;;10.49;98.09
54038;BME280;39954;48.844;9.726;2023-06-05T01:26:51;96149.38;;;10.43;98.15
54038;BME280;39954;48.844;9.726;2023-06-05T01:28:07;96150.38;;;10.41;99.03
54038;BME280;39954;48.844;9.726;2023-06-05T01:29:14;96143.59;;;10.38;99.55
54038;BME280;39954;48.844;9.726;2023-06-05T01:30:36;96154.25;;;10.34;100.00
54038;BME280;39954;48.844;9.726;2023-06-05T01:31:46;96143.00;;;10.33;100.00
54038;BME280;39954;48.844;9.726;2023-06-05T01:32:53;96150.25;;;10.28;100.00
54038;BME280;39954;48.844;9.726;2023-06-05T01:34:08;96153.41;;;10.33;100.00
54038;BME280;39954;48.844;9.726;2023-06-05T01:35:16;96148.53;;;10.27;100.00
54038;BME280;39954;48.844;9.726;2023-06-05T01:36:23;96150.28;;;10.26;100.00
54038;BME280;39954;48.844;9.726;2023-06-05T01:37:26;96149.78;;;10.20;100.00
54038;BME280;39954;48.844;9.726;2023-06-05T01:38:41;96151.69;;;10.16;100.00
54038;BME280;39954;48.844;9.726;2023-06-05T01:39:45;96151.78;;;10.15;100.00
54038;BME280;39954;48.844;9.726;2023-06-05T01:40:51;96153.72;;;10.11;100.00
54038;BME280;39954;48.844;9.726;2023-06-05T01:41:57;96149.34;;;10.12;100.00
54038;BME280;39954;48.844;9.726;2023-06-05T01:43:03;96146.94;;;10.08;100.00
54038;BME280;39954;48.844;9.726;2023-06-05T01:44:07;96151.34;;;10.06;100.00
54038;BME280;39954;48.844;9.726;2023-06-05T01:45:17;96146.16;;;10.06;100.00
54038;BME280;39954;48.844;9.726;2023-06-05T01:46:21;96153.03;;;10.07;100.00
54038;BME280;39954;48.844;9.726;2023-06-05T01:47:27;96149.69;;;10.05;100.00
54038;BME280;39954;48.844;9.726;2023-06-05T01:48:29;96148.00;;;10.04;100.00
54038;BME280;39954;48.844;9.726;2023-06-05T01:49:34;96152.44;;;10.02;100.00
54038;BME280;39954;48.844;9.726;2023-06-05T01:50:37;96149.75;;;10.04;100.00
54038;BME280;39954;48.844;9.726;2023-06-05T01:51:44;96152.34;;;10.04;100.00
54038;BME280;39954;48.844;9.726;2023-06-05T01:52:47;96145.50;;;10.03;100.00
54038;BME280;39954;48.844;9.726;2023-06-05T01:53:56;96148.16;;;10.01;100.00
54038;BME280;39954;48.844;9.726;2023-06-05T01:54:59;96147.34;;;10.01;100.00
54038;BME280;39954;48.844;9.726;2023-06-05T01:56:04;96150.53;;;10.06;100.00
54038;BME280;39954;48.844;9.726;2023-06-05T01:57:08;96145.50;;;10.03;100.00
54038;BME280;39954;48.844;9.726;2023-06-05T01:58:14;96141.97;;;10.04;100.00
54038;BME280;39954;48.844;9.726;2023-06-05T01:59:17;96148.16;;;10.01;100.00
54038;BME280;39954;48.844;9.726;2023-06-05T02:00:22;96146.75;;;9.96;100.00
54038;BME280;39954;48.844;9.726;2023-06-05T02:01:24;96147.66;;;9.95;100.00
54038;BME280;39954;48.844;9.726;2023-06-05T02:02:30;96143.38;;;9.94;100.00
54038;BME280;39954;48.844;9.726;2023-06-05T02:03:33;96146.84;;;9.94;100.00
54038;BME280;39954;48.844;9.726;2023-06-05T02:04:38;96147.97;;;9.89;100.00
54038;BME280;39954;48.844;9.726;2023-06-05T02:05:41;96148.06;;;9.87;100.00
54038;BME280;39954;48.844;9.726;2023-06-05T02:06:46;96143.94;;;9.83;100.00
54038;BME280;39954;48.844;9.726;2023-06-05T02:07:50;96146.53;;;9.83;100.00
54038;BME280;39954;48.844;9.726;2023-06-05T02:08:58;96141.59;;;9.78;100.00
54038;BME280;39954;48.844;9.726;2023-06-05T02:10:00;96143.44;;;9.76;100.00
54038;BME280;39954;48.844;9.726;2023-06-05T02:11:07;96135.75;;;9.75;100.00
54038;BME280;39954;48.844;9.726;2023-06-05T02:12:12;96137.56;;;9.73;100.00
54038;BME280;39954;48.844;9.726;2023-06-05T02:13:17;96133.44;;;9.69;100.00
54038;BME280;39954;48.844;9.726;2023-06-05T02:14:21;96135.31;;;9.67;100.00
54038;BME280;39954;48.844;9.726;2023-06-05T02:15:26;96140.41;;;9.68;100.00
54038;BME280;39954;48.844;9.726;2023-06-05T02:16:30;96136.97;;;9.68;100.00
54038;BME280;39954;48.844;9.726;2023-06-05T02:17:35;96139.75;;;9.64;100.00
54038;BME280;39954;48.844;9.726;2023-06-05T02:18:38;96131.03;;;9.66;100.00
54038;BME280;39954;48.844;9.726;2023-06-05T02:19:43;96144.16;;;9.62;100.00
54038;BME280;39954;48.844;9.726;2023-06-05T02:20:53;96141.41;;;9.66;100.00
54038;BME280;39954;48.844;9.726;2023-06-05T02:21:58;96139.75;;;9.64;100.00
54038;BME280;39954;48.844;9.726;2023-06-05T02:23:00;96138.06;;;9.63;100.00
54038;BME280;39954;48.844;9.726;2023-06-05T02:24:09;96137.31;;;9.61;100.00
54038;BME280;39954;48.844;9.726;2023-06-05T02:25:12;96138.19;;;9.60;100.00
54038;BME280;39954;48.844;9.726;2023-06-05T02:26:16;96141.56;;;9.62;100.00
54038;BME280;39954;48.844;9.726;2023-06-05T02:27:19;96145.97;;;9.60;100.00
54038;BME280;39954;48.844;9.726;2023-06-05T02:28:26;96142.50;;;9.61;100.00
54038;BME280;39954;48.844;9.726;2023-06-05T02:29:29;96144.09;;;9.64;100.00
54038;BME280;39954;48.844;9.726;2023-06-05T02:30:34;96146.69;;;9.64;100.00
54038;BME280;39954;48.844;9.726;2023-06-05T02:31:37;96144.25;;;9.61;100.00
54038;BME280;39954;48.844;9.726;2023-06-05T02:32:41;96145.09;;;9.61;100.00
54038;BME280;39954;48.844;9.726;2023-06-05T02:33:46;96136.22;;;9.66;100.00
54038;BME280;39954;48.844;9.726;2023-06-05T02:34:50;96143.41;;;9.60;100.00
54038;BME280;39954;48.844;9.726;2023-06-05T02:35:53;96133.72;;;9.64;100.00
54038;BME280;39954;48.844;9.726;2023-06-05T02:36:58;96136.53;;;9.59;100.00
54038;BME280;39954;48.844;9.726;2023-06-05T02:38:00;96140.22;;;9.55;100.00
54038;BME280;39954;48.844;9.726;2023-06-05T02:39:10;96134.03;;;9.58;100.00
54038;BME280;39954;48.844;9.726;2023-06-05T02:40:13;96137.53;;;9.57;100.00
54038;BME280;39954;48.844;9.726;2023-06-05T02:41:19;96143.41;;;9.60;100.00
54038;BME280;39954;48.844;9.726;2023-06-05T02:42:23;96140.97;;;9.57;100.00
54038;BME280;39954;48.844;9.726;2023-06-05T02:43:28;96132.28;;;9.58;100.00
54038;BME280;39954;48.844;9.726;2023-06-05T02:44:30;96140.28;;;9.54;100.00
54038;BME280;39954;48.844;9.726;2023-06-05T02:45:35;96146.31;;;9.54;100.00
54038;BME280;39954;48.844;9.726;2023-06-05T02:46:38;96137.69;;;9.54;100.00
54038;BME280;39954;48.844;9.726;2023-06-05T02:47:42;96141.06;;;9.56;100.00
54038;BME280;39954;48.844;9.726;2023-06-05T02:48:45;96143.72;;;9.54;100.00
54038;BME280;39954;48.844;9.726;2023-06-05T02:49:49;96142.22;;;9.50;100.00
54038;BME280;39954;48.844;9.726;2023-06-05T02:50:52;96140.44;;;9.51;100.00
54038;BME280;39954;48.844;9.726;2023-06-05T02:51:57;96142.06;;;9.53;100.00
54038;BME280;39954;48.844;9.726;2023-06-05T02:53:00;96140.50;;;9.49;100.00
54038;BME280;39954;48.844;9.726;2023-06-05T02:54:11;96136.47;;;9.44;100.00
54038;BME280;39954;48.844;9.726;2023-06-05T02:55:13;96134.97;;;9.39;100.00
54038;BME280;39954;48.844;9.726;2023-06-05T02:56:19;96137.63;;;9.38;100.00
54038;BME280;39954;48.844;9.726;2023-06-05T02:57:23;96141.47;;;9.31;100.00
54038;BME280;39954;48.844;9.726;2023-06-05T02:58:28;96141.63;;;9.28;100.00
54038;BME280;39954;48.844;9.726;2023-06-05T02:59:31;96138.44;;;9.23;100.00
54038;BME280;39954;48.844;9.726;2023-06-05T03:00:41;96133.09;;;9.26;100.00
54038;BME280;39954;48.844;9.726;2023-06-05T03:01:43;96139.94;;;9.27;100.00
54038;BME280;39954;48.844;9.726;2023-06-05T03:02:49;96143.31;;;9.29;100.00
54038;BME280;39954;48.844;9.726;2023-06-05T03:03:51;96133.91;;;9.26;100.00
54038;BME280;39954;48.844;9.726;2023-06-05T03:04:59;96135.69;;;9.26;100.00
54038;BME280;39954;48.844;9.726;2023-06-05T03:06:02;96136.44;;;9.28;100.00
54038;BME280;39954;48.844;9.726;2023-06-05T03:07:09;96129.56;;;9.27;100.00
54038;BME280;39954;48.844;9.726;2023-06-05T03:08:11;96133.69;;;9.31;100.00
54038;BME280;39954;48.844;9.726;2023-06-05T03:09:19;96138.88;;;9.31;100.00
54038;BME280;39954;48.844;9.726;2023-06-05T03:10:22;96129.50;;;9.28;100.00
54038;BME280;39954;48.844;9.726;2023-06-05T03:11:26;96132.09;;;9.28;100.00
54038;BME280;39954;48.844;9.726;2023-06-05T03:12:29;96126.97;;;9.27;100.00
54038;BME280;39954;48.844;9.726;2023-06-05T03:13:33;96136.75;;;9.22;100.00
54038;BME280;39954;48.844;9.726;2023-06-05T03:14:36;96134.41;;;9.17;100.00
54038;BME280;39954;48.844;9.726;2023-06-05T03:15:41;96121.28;;;9.20;100.00
54038;BME280;39954;48.844;9.726;2023-06-05T03:16:44;96118.75;;;9.18;100.00
54038;BME280;39954;48.844;9.726;2023-06-05T03:17:49;96131.59;;;9.22;100.00
54038;BME280;39954;48.844;9.726;2023-06-05T03:18:51;96124.69;;;9.21;100.00
54038;BME280;39954;48.844;9.726;2023-06-05T03:19:57;96126.97;;;9.27;100.00
54038;BME280;39954;48.844;9.726;2023-06-05T03:20:59;96130.44;;;9.27;100.00
54038;BME280;39954;48.844;9.726;2023-06-05T03:22:04;96125.16;;;9.29;100.00
54038;BME280;39954;48.844;9.726;2023-06-05T03:23:07;96123.53;;;9.26;100.00
54038;BME280;39954;48.844;9.726;2023-06-05T03:24:13;96124.63;;;9.22;100.00
54038;BME280;39954;48.844;9.726;2023-06-05T03:25:18;96130.72;;;9.21;100.00
54038;BME280;39954;48.844;9.726;2023-06-05T03:26:23;96129.13;;;9.18;100.00
54038;BME280;39954;48.844;9.726;2023-06-05T03:27:26;96125.78;;;9.16;100.00
54038;BME280;39954;48.844;9.726;2023-06-05T03:28:31;96128.53;;;9.13;100.00
54038;BME280;39954;48.844;9.726;2023-06-05T03:29:35;96137.97;;;9.14;100.00
54038;BME280;39954;48.844;9.726;2023-06-05T03:30:41;96138.13;;;9.11;100.00
54038;BME280;39954;48.844;9.726;2023-06-05T03:31:43;96138.28;;;9.08;100.00
54038;BME280;39954;48.844;9.726;2023-06-05T03:32:48;96136.53;;;9.09;100.00
54038;BME280;39954;48.844;9.726;2023-06-05T03:33:51;96131.41;;;9.07;100.00
54038;BME280;39954;48.844;9.726;2023-06-05T03:34:56;96138.28;;;9.08;100.00
54038;BME280;39954;48.844;9.726;2023-06-05T03:35:58;96134.88;;;9.08;100.00
54038;BME280;39954;48.844;9.726;2023-06-05T03:37:04;96130.66;;;9.05;100.00
54038;BME280;39954;48.844;9.726;2023-06-05T03:38:09;96140.19;;;9.05;100.00
54038;BME280;39954;48.844;9.726;2023-06-05T03:39:11;96141.88;;;9.06;100.00
54038;BME280;39954;48.844;9.726;2023-06-05T03:40:19;96136.69;;;9.06;100.00
54038;BME280;39954;48.844;9.726;2023-06-05T03:41:21;96138.34;;;9.07;100.00
54038;BME280;39954;48.844;9.726;2023-06-05T03:42:27;96139.19;;;9.07;100.00
54038;BME280;39954;48.844;9.726;2023-06-05T03:43:30;96140.13;;;9.06;100.00
54038;BME280;39954;48.844;9.726;2023-06-05T03:44:35;96132.34;;;9.06;100.00
54038;BME280;39954;48.844;9.726;2023-06-05T03:45:37;96141.78;;;9.07;100.00
54038;BME280;39954;48.844;9.726;2023-06-05T03:46:43;96137.19;;;9.12;100.00
54038;BME280;39954;48.844;9.726;2023-06-05T03:47:46;96139.06;;;9.10;100.00
54038;BME280;39954;48.844;9.726;2023-06-05T03:48:51;96144.16;;;9.12;100.00
54038;BME280;39954;48.844;9.726;2023-06-05T03:50:00;96145.06;;;9.11;100.00
54038;BME280;39954;48.844;9.726;2023-06-05T03:51:05;96142.22;;;9.15;100.00
54038;BME280;39954;48.844;9.726;2023-06-05T03:52:08;96135.31;;;9.16;100.00
54038;BME280;39954;48.844;9.726;2023-06-05T03:53:13;96143.09;;;9.16;100.00
54038;BME280;39954;48.844;9.726;2023-06-05T03:54:15;96143.16;;;9.14;100.00
54038;BME280;39954;48.844;9.726;2023-06-05T03:55:23;96144.09;;;9.13;100.00
54038;BME280;39954;48.844;9.726;2023-06-05T03:56:26;96150.94;;;9.14;100.00
54038;BME280;39954;48.844;9.726;2023-06-05T03:57:36;96143.09;;;9.16;100.00
54038;BME280;39954;48.844;9.726;2023-06-05T03:58:39;96142.94;;;9.19;100.00
54038;BME280;39954;48.844;9.726;2023-06-05T03:59:46;96141.25;;;9.18;100.00
54038;BME280;39954;48.844;9.726;2023-06-05T04:00:51;96142.84;;;9.21;100.00
54038;BME280;39954;48.844;9.726;2023-06-05T04:01:54;96141.03;;;9.23;100.00
54038;BME280;39954;48.844;9.726;2023-06-05T04:02:59;96140.19;;;9.22;100.00
54038;BME280;39954;48.844;9.726;2023-06-05T04:04:02;96141.47;;;9.31;100.00
54038;BME280;39954;48.844;9.726;2023-06-05T04:05:07;96144.69;;;9.36;100.00
54038;BME280;39954;48.844;9.726;2023-06-05T04:06:13;96143.75;;;9.37;100.00
54038;BME280;39954;48.844;9.726;2023-06-05T04:07:18;96140.84;;;9.43;100.00
54038;BME280;39954;48.844;9.726;2023-06-05T04:08:23;96142.22;;;9.50;100.00
54038;BME280;39954;48.844;9.726;2023-06-05T04:09:28;96145.47;;;9.54;100.00
54038;BME280;39954;48.844;9.726;2023-06-05T04:10:33;96143.25;;;9.63;100.00
54038;BME280;39954;48.844;9.726;2023-06-05T04:11:39;96144.59;;;9.71;100.00
54038;BME280;39954;48.844;9.726;2023-06-05T04:12:41;96146.25;;;9.72;100.00
54038;BME280;39954;48.844;9.726;2023-06-05T04:13:46;96154.41;;;9.81;100.00
54038;BME280;39954;48.844;9.726;2023-06-05T04:14:51;96147.13;;;9.88;100.00
54038;BME280;39954;48.844;9.726;2023-06-05T04:15:53;96149.66;;;9.90;100.00
54038;BME280;39954;48.844;9.726;2023-06-05T04:16:59;96147.84;;;9.92;100.00
54038;BME280;39954;48.844;9.726;2023-06-05T04:18:01;96145.97;;;9.94;100.00
54038;BME280;39954;48.844;9.726;2023-06-05T04:19:07;96151.88;;;9.97;100.00
54038;BME280;39954;48.844;9.726;2023-06-05T04:20:12;96147.94;;;10.06;100.00
54038;BME280;39954;48.844;9.726;2023-06-05T04:21:18;96148.44;;;10.13;100.00
54038;BME280;39954;48.844;9.726;2023-06-05T04:22:20;96141.06;;;10.21;100.00
54038;BME280;39954;48.844;9.726;2023-06-05T04:23:25;96148.53;;;10.27;100.00
54038;BME280;39954;48.844;9.726;2023-06-05T04:24:27;96149.22;;;10.30;100.00
54038;BME280;39954;48.844;9.726;2023-06-05T04:25:35;96153.41;;;10.33;100.00
54038;BME280;39954;48.844;9.726;2023-06-05T04:26:42;96153.16;;;10.38;100.00
54038;BME280;39954;48.844;9.726;2023-06-05T04:27:46;96156.41;;;10.41;100.00
54038;BME280;39954;48.844;9.726;2023-06-05T04:28:51;96150.81;;;10.49;100.00
54038;BME280;39954;48.844;9.726;2023-06-05T04:29:53;96156.66;;;10.52;100.00
54038;BME280;39954;48.844;9.726;2023-06-05T04:30:58;96157.41;;;10.55;100.00
54038;BME280;39954;48.844;9.726;2023-06-05T04:32:01;96151.16;;;10.59;100.00
54038;BME280;39954;48.844;9.726;2023-06-05T04:33:06;96146.69;;;10.61;100.00
54038;BME280;39954;48.844;9.726;2023-06-05T04:34:08;96149.88;;;10.66;100.00
54038;BME280;39954;48.844;9.726;2023-06-05T04:35:13;96155.06;;;10.66;100.00
54038;BME280;39954;48.844;9.726;2023-06-05T04:36:15;96156.72;;;10.67;100.00
54038;BME280;39954;48.844;9.726;2023-06-05T04:37:20;96145.31;;;10.69;100.00
54038;BME280;39954;48.844;9.726;2023-06-05T04:38:22;96145.06;;;10.74;100.00
54038;BME280;39954;48.844;9.726;2023-06-05T04:39:27;96143.97;;;10.78;100.00
54038;BME280;39954;48.844;9.726;2023-06-05T04:40:29;96146.41;;;10.81;99.80
54038;BME280;39954;48.844;9.726;2023-06-05T04:41:38;96152.16;;;10.86;99.82
54038;BME280;39954;48.844;9.726;2023-06-05T04:42:46;96151.91;;;10.91;98.82
54038;BME280;39954;48.844;9.726;2023-06-05T04:43:52;96151.66;;;10.95;98.37
54038;BME280;39954;48.844;9.726;2023-06-05T04:44:57;96144.25;;;11.04;95.13
54038;BME280;39954;48.844;9.726;2023-06-05T04:46:02;96149.09;;;11.10;94.91
54038;BME280;39954;48.844;9.726;2023-06-05T04:47:05;96149.69;;;11.15;94.12
54038;BME280;39954;48.844;9.726;2023-06-05T04:48:10;96151.91;;;11.21;95.53
54038;BME280;39954;48.844;9.726;2023-06-05T04:49:16;96149.13;;;11.24;95.41
54038;BME280;39954;48.844;9.726;2023-06-05T04:50:22;96147.84;;;11.31;93.83
54038;BME280;39954;48.844;9.726;2023-06-05T04:51:28;96153.59;;;11.36;93.46
54038;BME280;39954;48.844;9.726;2023-06-05T04:52:31;96155.13;;;11.40;92.45
54038;BME280;39954;48.844;9.726;2023-06-05T04:53:37;96145.44;;;11.42;92.19
54038;BME280;39954;48.844;9.726;2023-06-05T04:54:39;96150.31;;;11.49;92.42
54038;BME280;39954;48.844;9.726;2023-06-05T04:55:44;96147.50;;;11.52;92.47
54038;BME280;39954;48.844;9.726;2023-06-05T04:56:49;96153.28;;;11.57;91.39
54038;BME280;39954;48.844;9.726;2023-06-05T04:57:54;96153.81;;;11.62;89.49
54038;BME280;39954;48.844;9.726;2023-06-05T04:59:03;96151.78;;;11.67;89.86
54038;BME280;39954;48.844;9.726;2023-06-05T05:00:09;96153.19;;;11.73;89.74
54038;BME280;39954;48.844;9.726;2023-06-05T05:01:17;96154.78;;;11.75;89.18
54038;BME280;39954;48.844;9.726;2023-06-05T05:02:20;96150.13;;;11.80;88.93
54038;BME280;39954;48.844;9.726;2023-06-05T05:03:25;96153.31;;;11.85;88.31
54038;BME280;39954;48.844;9.726;2023-06-05T05:04:32;96148.50;;;11.94;87.66
54038;BME280;39954;48.844;9.726;2023-06-05T05:05:37;96147.28;;;11.99;87.11
54038;BME280;39954;48.844;9.726;2023-06-05T05:06:40;96153.13;;;12.03;86.88
54038;BME280;39954;48.844;9.726;2023-06-05T05:07:49;96149.31;;;12.08;87.68
54038;BME280;39954;48.844;9.726;2023-06-05T05:08:53;96145.47;;;12.14;86.06
54038;BME280;39954;48.844;9.726;2023-06-05T05:10:00;96144.34;;;12.18;86.08
54038;BME280;39954;48.844;9.726;2023-06-05T05:11:05;96148.44;;;12.22;84.71
54038;BME280;39954;48.844;9.726;2023-06-05T05:12:13;96145.66;;;12.25;85.25
54038;BME280;39954;48.844;9.726;2023-06-05T05:13:19;96144.53;;;12.29;83.84
54038;BME280;39954;48.844;9.726;2023-06-05T05:14:21;96146.75;;;12.36;83.71
54038;BME280;39954;48.844;9.726;2023-06-05T05:15:28;96147.41;;;12.39;83.68
54038;BME280;39954;48.844;9.726;2023-06-05T05:16:32;96143.75;;;12.42;84.73
54038;BME280;39954;48.844;9.726;2023-06-05T05:17:39;96147.75;;;12.47;84.76
54038;BME280;39954;48.844;9.726;2023-06-05T05:18:45;96141.50;;;12.50;84.12
54038;BME280;39954;48.844;9.726;2023-06-05T05:19:52;96144.56;;;12.57;83.96
54038;BME280;39954;48.844;9.726;2023-06-05T05:20:55;96144.91;;;12.65;83.24
54038;BME280;39954;48.844;9.726;2023-06-05T05:22:00;96144.63;;;12.69;81.93
54038;BME280;39954;48.844;9.726;2023-06-05T05:23:03;96143.47;;;12.73;82.03
54038;BME280;39954;48.844;9.726;2023-06-05T05:24:10;96143.19;;;12.78;81.72
54038;BME280;39954;48.844;9.726;2023-06-05T05:25:13;96149.84;;;12.82;81.45
54038;BME280;39954;48.844;9.726;2023-06-05T05:26:18;96141.84;;;12.85;82.22
54038;BME280;39954;48.844;9.726;2023-06-05T05:27:23;96140.59;;;12.91;81.83
54038;BME280;39954;48.844;9.726;2023-06-05T05:28:28;96153.47;;;12.94;81.98
54038;BME280;39954;48.844;9.726;2023-06-05T05:29:34;96143.53;;;12.99;82.98
54038;BME280;39954;48.844;9.726;2023-06-05T05:30:36;96153.69;;;13.04;83.34
54038;BME280;39954;48.844;9.726;2023-06-05T05:31:41;96152.53;;;13.08;84.72
54038;BME280;39954;48.844;9.726;2023-06-05T05:32:43;96149.63;;;13.12;83.97
54038;BME280;39954;48.844;9.726;2023-06-05T05:33:48;96154.34;;;13.20;82.22
54038;BME280;39954;48.844;9.726;2023-06-05T05:34:51;96154.97;;;13.24;82.06
54038;BME280;39954;48.844;9.726;2023-06-05T05:35:56;96152.94;;;13.29;80.31
54038;BME280;39954;48.844;9.726;2023-06-05T05:36:58;96148.34;;;13.32;80.42
54038;BME280;39954;48.844;9.726;2023-06-05T05:38:03;96155.03;;;13.36;81.16
54038;BME280;39954;48.844;9.726;2023-06-05T05:39:05;96152.97;;;13.41;82.20
54038;BME280;39954;48.844;9.726;2023-06-05T05:40:11;96159.44;;;13.49;80.81
54038;BME280;39954;48.844;9.726;2023-06-05T05:41:14;96160.06;;;13.52;81.32
54038;BME280;39954;48.844;9.726;2023-06-05T05:42:19;96152.75;;;13.57;83.20